Terminal Aerodrome Forecast
Issued by NWS

Home | Current Version | Previous Version | Graphics & Text | Print | Product List | Glossary On
Versions: 1 2 3 4 5 6 7 8 9 10 11 12 13
000
FTUS43 KDLH 301700
TAFBRD
TAF
KBRD 301735Z 3018/3118 32010KT P6SM SCT060
      TEMPO 3019/3023 BKN070
     FM310100 VRB03KT P6SM FEW070
      TEMPO 3108/3112 5SM BR SCT005
     FM311600 31008KT P6SM FEW050=

USA.gov is the U.S. government's official web portal to all federal, state and local government web resources and services.